Time;durP1;ratioP1;P1;durP2;ratioP2;P2;SDS_P1;SDS_P2;PMS_P1;PMS_P2;Temp;Humidity;BMP_temperature;BMP_pressure;BME280_temperature;BME280_humidity;BME280_pressure;Samples;Min_cycle;Max_cycle;Signal;HPM_P1;HPM_P2
2020/12/08 00:02:18;;;;;;;19.33;13.70;;;;;;;3.10;100.00;98998.81;5117237;28;20257;-32
2020/12/08 00:05:04;;;;;;;16.40;13.30;;;;;;;3.15;100.00;99003.09;5117484;28;20190;-32
2020/12/08 00:07:50;;;;;;;17.57;14.57;;;;;;;3.10;100.00;98996.25;5117694;28;20225;-32
2020/12/08 00:10:36;;;;;;;20.00;14.70;;;;;;;3.14;100.00;99002.22;5117296;28;20234;-32
2020/12/08 00:13:21;;;;;;;18.27;14.67;;;;;;;3.16;100.00;98999.69;5117726;28;20210;-33
2020/12/08 00:16:08;;;;;;;21.20;15.07;;;;;;;3.22;100.00;99004.78;5117687;28;20584;-34
2020/12/08 00:18:54;;;;;;;19.23;14.77;;;;;;;3.22;100.00;99002.22;5117435;28;20248;-33
2020/12/08 00:21:40;;;;;;;20.67;15.30;;;;;;;3.21;100.00;99006.47;5117592;28;20574;-32
2020/12/08 00:24:26;;;;;;;20.97;15.90;;;;;;;3.23;100.00;99001.38;5116890;28;20648;-33
2020/12/08 00:27:12;;;;;;;19.20;15.57;;;;;;;3.19;100.00;99000.53;5117157;28;20198;-31
2020/12/08 00:29:58;;;;;;;21.40;15.70;;;;;;;3.24;100.00;98998.81;5117231;28;20227;-31
2020/12/08 00:32:45;;;;;;;21.37;16.17;;;;;;;3.28;100.00;98999.66;5117149;28;20490;-33
2020/12/08 00:35:32;;;;;;;22.13;15.97;;;;;;;3.31;100.00;99002.22;5117210;28;20594;-34
2020/12/08 00:38:18;;;;;;;22.17;16.47;;;;;;;3.33;100.00;99005.63;5117393;28;20195;-34
2020/12/08 00:41:04;;;;;;;23.67;16.80;;;;;;;3.31;100.00;99000.53;5117474;28;20194;-34
2020/12/08 00:43:50;;;;;;;26.60;17.37;;;;;;;3.40;100.00;98999.66;5116763;28;20616;-33
2020/12/08 00:46:36;;;;;;;32.20;21.63;;;;;;;3.37;100.00;99000.53;5117248;28;20476;-31
2020/12/08 00:49:24;;;;;;;26.80;20.30;;;;;;;3.55;100.00;98991.13;5117544;28;20211;-33
2020/12/08 00:52:09;;;;;;;30.77;20.70;;;;;;;3.55;100.00;98993.69;5121301;28;20199;-35
2020/12/08 00:54:54;;;;;;;23.37;17.70;;;;;;;3.62;100.00;98996.22;5121552;28;20195;-32
2020/12/08 00:57:40;;;;;;;24.27;17.03;;;;;;;3.55;100.00;98988.59;5121355;28;20199;-33
2020/12/08 01:00:26;;;;;;;24.67;17.43;;;;;;;3.62;100.00;98988.56;5121257;28;20254;-34
2020/12/08 01:03:12;;;;;;;24.33;18.40;;;;;;;3.60;100.00;98987.69;5121234;28;20271;-31
2020/12/08 01:06:00;;;;;;;26.40;17.87;;;;;;;3.61;100.00;98978.31;5120771;28;20292;-35
2020/12/08 01:08:45;;;;;;;24.33;17.37;;;;;;;3.59;100.00;98985.19;5120850;28;20285;-32
2020/12/08 01:11:31;;;;;;;23.37;17.10;;;;;;;3.51;100.00;98985.16;5120712;28;20298;-33
2020/12/08 01:14:17;;;;;;;23.77;17.03;;;;;;;3.41;100.00;98986.88;5120659;28;20256;-32
2020/12/08 01:17:04;;;;;;;24.70;16.53;;;;;;;3.32;100.00;98989.44;5120354;28;20190;-37
2020/12/08 01:19:51;;;;;;;23.73;16.73;;;;;;;3.28;100.00;98984.34;5120648;28;20518;-32
2020/12/08 01:22:38;;;;;;;25.47;16.83;;;;;;;3.21;100.00;98982.63;5120412;28;20202;-31
2020/12/08 01:25:23;;;;;;;24.20;16.20;;;;;;;3.16;100.00;98990.31;5120541;28;20206;-36
2020/12/08 01:28:09;;;;;;;25.00;17.20;;;;;;;3.11;100.00;98990.31;5120540;28;20207;-32
2020/12/08 01:30:55;;;;;;;26.73;18.37;;;;;;;3.09;100.00;98986.91;5120453;28;20325;-34
2020/12/08 01:33:41;;;;;;;22.43;16.37;;;;;;;3.02;100.00;98982.63;5120480;28;20199;-35
2020/12/08 01:36:27;;;;;;;25.03;16.93;;;;;;;2.93;100.00;98979.22;5120051;28;20202;-36
2020/12/08 01:39:13;;;;;;;27.70;18.00;;;;;;;2.91;100.00;98989.44;5120447;28;20607;-33
2020/12/08 01:41:59;;;;;;;27.87;18.60;;;;;;;2.84;100.00;98997.06;5120415;28;20291;-31
2020/12/08 01:44:49;;;;;;;29.37;19.87;;;;;;;2.85;100.00;98996.22;5120330;28;20194;-32
2020/12/08 01:47:35;;;;;;;29.07;18.20;;;;;;;2.76;100.00;98994.53;5119940;28;20202;-34
2020/12/08 01:50:21;;;;;;;31.57;21.17;;;;;;;2.68;100.00;99003.88;5119948;28;20301;-32
2020/12/08 01:53:06;;;;;;;31.30;19.93;;;;;;;2.60;100.00;98995.34;5120405;28;20315;-32
2020/12/08 01:55:53;;;;;;;32.23;19.80;;;;;;;2.57;100.00;99003.00;5120191;28;20218;-32
2020/12/08 01:58:38;;;;;;;31.60;19.43;;;;;;;2.52;100.00;99002.13;5119997;28;20199;-33
2020/12/08 02:01:25;;;;;;;28.33;19.03;;;;;;;2.50;100.00;99004.66;5119592;28;20191;-32
2020/12/08 02:04:10;;;;;;;34.50;21.30;;;;;;;2.45;100.00;98993.59;5120018;28;20589;-36
2020/12/08 02:06:56;;;;;;;32.83;19.77;;;;;;;2.40;100.00;98988.47;5119596;28;20291;-33
2020/12/08 02:09:41;;;;;;;35.60;22.40;;;;;;;2.39;100.00;98985.94;5119881;28;20560;-34
2020/12/08 02:12:27;;;;;;;35.47;21.60;;;;;;;2.36;100.00;99002.09;5119912;28;20193;-31
2020/12/08 02:15:13;;;;;;;36.77;22.57;;;;;;;2.27;100.00;98996.94;5119659;28;20199;-32
2020/12/08 02:17:59;;;;;;;34.23;21.10;;;;;;;2.23;100.00;98997.75;5119688;28;20584;-32
2020/12/08 02:20:45;;;;;;;34.63;21.37;;;;;;;2.25;100.00;99003.72;5119524;28;20191;-32
2020/12/08 02:23:31;;;;;;;37.07;22.73;;;;;;;2.15;100.00;99004.56;5119262;28;20264;-31
2020/12/08 02:26:17;;;;;;;37.07;21.60;;;;;;;2.13;100.00;99000.28;5119394;28;20199;-31
2020/12/08 02:29:03;;;;;;;37.27;21.73;;;;;;;2.12;100.00;99004.53;5118740;28;20356;-32
2020/12/08 02:31:49;;;;;;;38.13;22.47;;;;;;;2.07;100.00;99011.31;5119196;28;20436;-37
2020/12/08 02:34:34;;;;;;;42.83;23.93;;;;;;;2.09;100.00;99001.97;5119308;28;20611;-32
2020/12/08 02:37:21;;;;;;;40.60;23.80;;;;;;;2.07;100.00;99012.16;5119392;28;20260;-35
2020/12/08 02:40:07;;;;;;;39.57;22.47;;;;;;;2.00;100.00;99009.56;5118860;28;20200;-35
2020/12/08 02:42:53;;;;;;;40.97;23.70;;;;;;;1.93;100.00;99008.69;5118964;28;20210;-36
2020/12/08 02:45:39;;;;;;;46.30;23.43;;;;;;;1.92;100.00;99016.31;5118888;28;20202;-34
2020/12/08 02:48:25;;;;;;;39.23;23.73;;;;;;;1.84;100.00;99018.81;5119209;28;20611;-33
2020/12/08 02:51:18;;;;;;;42.07;23.90;;;;;;;1.85;100.00;99022.22;5118533;28;20230;-33
2020/12/08 02:54:05;;;;;;;42.97;24.90;;;;;;;1.89;100.00;99023.97;5118649;28;20435;-32
2020/12/08 02:56:50;;;;;;;47.67;26.27;;;;;;;1.86;100.00;99019.69;5118815;28;20214;-33
2020/12/08 02:59:36;;;;;;;48.33;25.27;;;;;;;1.86;100.00;99008.63;5119059;28;20207;-34
2020/12/08 03:02:23;;;;;;;44.47;27.07;;;;;;;1.86;100.00;99018.84;5118896;28;20210;-37
2020/12/08 03:05:08;;;;;;;46.10;25.83;;;;;;;1.92;100.00;99011.22;5118565;28;20295;-34
2020/12/08 03:07:54;;;;;;;45.23;26.27;;;;;;;1.95;100.00;99013.81;5118704;28;20741;-34
2020/12/08 03:10:41;;;;;;;48.80;27.30;;;;;;;2.08;100.00;99013.00;5118627;28;20226;-33
2020/12/08 03:13:30;;;;;;;45.80;27.00;;;;;;;2.05;100.00;99011.28;5117887;28;20488;-34
2020/12/08 03:16:17;;;;;;;47.67;26.33;;;;;;;2.13;100.00;99006.25;5118825;28;20198;-34
2020/12/08 03:19:02;;;;;;;53.97;26.43;;;;;;;2.17;100.00;99000.31;5118564;28;20468;-34
2020/12/08 03:21:48;;;;;;;49.23;26.40;;;;;;;2.20;100.00;99000.28;5117207;28;20206;-33
2020/12/08 03:24:33;;;;;;;46.53;25.77;;;;;;;2.20;100.00;98992.66;5118472;28;20335;-33
2020/12/08 03:27:20;;;;;;;47.07;26.10;;;;;;;2.24;100.00;98996.91;5118557;28;20207;-34
2020/12/08 03:30:06;;;;;;;49.00;25.87;;;;;;;2.30;100.00;98999.50;5118224;28;20206;-38
2020/12/08 03:32:53;;;;;;;49.40;26.13;;;;;;;2.33;100.00;98996.97;5118445;28;20328;-38
2020/12/08 03:35:40;;;;;;;47.20;25.37;;;;;;;2.37;100.00;98993.59;5118513;28;20214;-32
2020/12/08 03:38:25;;;;;;;48.70;28.07;;;;;;;2.41;100.00;98991.88;5118454;28;20201;-32
2020/12/08 03:41:11;;;;;;;48.20;26.83;;;;;;;2.55;100.00;98992.78;5117937;28;20194;-33
2020/12/08 03:43:57;;;;;;;48.13;25.07;;;;;;;2.64;100.00;98989.38;5117868;28;20194;-34
2020/12/08 03:46:43;;;;;;;46.33;25.00;;;;;;;2.73;100.00;98990.28;5118289;28;20207;-33
2020/12/08 03:49:29;;;;;;;43.87;25.17;;;;;;;2.70;100.00;99002.16;5117953;28;20484;-37
2020/12/08 03:52:14;;;;;;;45.17;24.83;;;;;;;2.70;100.00;98995.38;5117983;28;20222;-33
2020/12/08 03:55:00;;;;;;;37.87;23.63;;;;;;;2.87;100.00;98994.53;5118151;28;20607;-34
2020/12/08 03:57:45;;;;;;;41.47;24.73;;;;;;;2.87;100.00;98999.63;5117995;28;20198;-32
2020/12/08 04:00:32;;;;;;;43.47;23.53;;;;;;;2.97;100.00;98989.44;5117936;28;20255;-34
2020/12/08 04:03:19;;;;;;;38.70;22.60;;;;;;;2.94;100.00;98993.69;5117774;28;20194;-33
2020/12/08 04:06:05;;;;;;;38.30;23.40;;;;;;;2.99;100.00;98997.13;5117423;28;20621;-32
2020/12/08 04:08:50;;;;;;;39.73;22.73;;;;;;;2.98;100.00;98986.06;5117973;28;20323;-35
2020/12/08 04:11:36;;;;;;;34.70;22.57;;;;;;;3.06;100.00;98989.44;5117732;28;20357;-32
2020/12/08 04:14:22;;;;;;;36.40;23.10;;;;;;;3.06;100.00;98988.59;5117862;28;20201;-35
2020/12/08 04:17:09;;;;;;;36.07;21.40;;;;;;;3.09;100.00;98988.59;5117773;28;20194;-32
2020/12/08 04:19:54;;;;;;;34.07;20.40;;;;;;;3.05;100.00;98990.28;5117537;28;20198;-35
2020/12/08 04:22:40;;;;;;;38.17;23.40;;;;;;;3.07;100.00;98990.28;5117771;28;20340;-35
2020/12/08 04:25:26;;;;;;;36.37;22.27;;;;;;;3.20;100.00;98993.72;5120957;28;20484;-37
2020/12/08 04:28:12;;;;;;;39.63;21.33;;;;;;;3.11;100.00;98995.41;5122024;28;20302;-35
2020/12/08 04:30:58;;;;;;;35.60;22.20;;;;;;;3.17;100.00;98996.28;5121575;28;20222;-34
2020/12/08 04:33:45;;;;;;;38.67;22.50;;;;;;;3.19;100.00;98995.44;5121652;28;20332;-33
2020/12/08 04:36:32;;;;;;;33.07;20.73;;;;;;;3.19;100.00;99007.34;5121423;28;20612;-31
2020/12/08 04:39:17;;;;;;;35.03;20.73;;;;;;;3.25;100.00;99008.19;5121631;28;20599;-32
2020/12/08 04:42:03;;;;;;;34.63;21.30;;;;;;;3.31;100.00;99009.91;5121242;28;20233;-33
2020/12/08 04:44:49;;;;;;;34.80;21.80;;;;;;;3.33;100.00;99008.19;5121510;28;20359;-32
2020/12/08 04:47:38;;;;;;;33.13;19.73;;;;;;;3.39;100.00;99008.19;5120887;28;20198;-31
2020/12/08 04:50:24;;;;;;;34.67;20.67;;;;;;;3.50;100.00;99009.03;5121398;28;20222;-35
2020/12/08 04:53:10;;;;;;;31.37;19.87;;;;;;;3.57;100.00;99005.63;5121447;28;20673;-30
2020/12/08 04:55:56;;;;;;;33.50;20.27;;;;;;;3.59;100.00;99006.47;5121029;28;20282;-33
2020/12/08 04:58:43;;;;;;;34.63;20.23;;;;;;;3.51;100.00;99000.50;5120898;28;20528;-33
2020/12/08 05:01:29;;;;;;;29.97;18.47;;;;;;;3.56;100.00;99003.91;5120540;28;20191;-32
2020/12/08 05:04:23;;;;;;;31.23;20.23;;;;;;;3.56;100.00;99003.91;5120462;28;20491;-32
2020/12/08 05:07:10;;;;;;;32.07;20.67;;;;;;;3.48;100.00;99013.28;5120718;28;20226;-34
2020/12/08 05:09:56;;;;;;;30.37;18.93;;;;;;;3.50;100.00;99003.06;5120784;28;20492;-32
2020/12/08 05:12:42;;;;;;;31.80;18.87;;;;;;;3.55;100.00;99009.03;5120830;28;20496;-36
2020/12/08 05:15:28;;;;;;;29.30;19.10;;;;;;;3.53;100.00;99013.28;5120963;28;20194;-32
2020/12/08 05:18:13;;;;;;;30.07;19.87;;;;;;;3.50;100.00;99009.03;5120630;28;20269;-35
2020/12/08 05:21:07;;;;;;;31.97;19.60;;;;;;;3.57;100.00;99010.75;5120685;28;20208;-31
2020/12/08 05:23:53;;;;;;;29.17;18.53;;;;;;;3.54;100.00;99013.28;5120754;28;20219;-33
2020/12/08 05:26:39;;;;;;;30.10;19.03;;;;;;;3.61;100.00;99017.53;5120904;28;20209;-35
2020/12/08 05:29:25;;;;;;;30.87;19.10;;;;;;;3.64;100.00;99009.00;5120011;28;20600;-32
2020/12/08 05:32:23;;;;;;;29.10;19.10;;;;;;;3.74;100.00;99015.81;5120281;28;20228;-33
2020/12/08 05:35:11;;;;;;;28.37;18.20;;;;;;;3.67;100.00;99020.09;5120063;28;20289;-31
2020/12/08 05:37:57;;;;;;;30.77;19.37;;;;;;;3.76;100.00;99014.13;5120698;28;20214;-32
2020/12/08 05:40:45;;;;;;;30.13;19.57;;;;;;;3.75;100.00;99018.38;5120263;28;20648;-33
2020/12/08 05:43:36;;;;;;;29.63;17.63;;;;;;;3.76;100.00;99022.63;5140594;27;20410;-33
2020/12/08 05:46:23;;;;;;;28.53;17.73;;;;;;;3.80;100.00;99026.88;5140923;27;20489;-33
2020/12/08 05:49:14;;;;;;;27.50;18.03;;;;;;;3.85;100.00;99026.88;5140410;27;20199;-35
2020/12/08 05:52:00;;;;;;;28.00;18.20;;;;;;;3.77;100.00;99021.78;5140149;27;20486;-32
2020/12/08 05:54:45;;;;;;;30.77;19.07;;;;;;;3.82;100.00;99029.44;5140565;27;20596;-35
2020/12/08 05:57:33;;;;;;;27.73;17.73;;;;;;;3.88;100.00;99029.44;5139875;27;20198;-31
2020/12/08 06:00:24;;;;;;;28.47;18.93;;;;;;;3.84;100.00;99022.59;5139575;27;20195;-31
2020/12/08 06:03:12;;;;;;;29.07;19.07;;;;;;;3.92;100.00;99027.72;5118650;28;20192;-33
2020/12/08 06:06:07;;;;;;;25.27;17.07;;;;;;;3.84;100.00;99032.00;5119596;28;20204;-33
2020/12/08 06:08:52;;;;;;;28.33;17.67;;;;;;;3.86;100.00;99030.28;5118927;28;20385;-34
2020/12/08 06:11:40;;;;;;;30.43;18.00;;;;;;;3.90;100.00;99034.53;5118460;28;20290;-33
2020/12/08 06:14:36;;;;;;;28.13;18.70;;;;;;;3.93;100.00;99037.94;5119177;28;20257;-33
2020/12/08 06:17:21;;;;;;;29.07;18.80;;;;;;;3.92;100.00;99037.94;5119279;28;20270;-33
2020/12/08 06:20:07;;;;;;;29.20;18.70;;;;;;;3.77;100.00;99037.13;5119008;28;20363;-35
2020/12/08 06:22:56;;;;;;;29.30;18.67;;;;;;;3.86;100.00;99043.91;5118126;28;20261;-34
2020/12/08 06:25:42;;;;;;;27.40;17.50;;;;;;;3.79;100.00;99045.66;5116809;28;20196;-34
2020/12/08 06:28:27;;;;;;;29.40;18.70;;;;;;;3.89;100.00;99045.63;5118493;28;20659;-32
2020/12/08 06:31:14;;;;;;;27.10;16.90;;;;;;;3.91;100.00;99043.91;5118013;28;20281;-35
2020/12/08 06:34:00;;;;;;;29.67;19.67;;;;;;;3.88;100.00;99049.88;5118397;28;20203;-34
2020/12/08 06:36:45;;;;;;;28.77;18.87;;;;;;;3.93;100.00;99047.34;5118335;28;20328;-34
2020/12/08 06:39:32;;;;;;;29.93;18.63;;;;;;;3.88;100.00;99049.03;5118517;28;20313;-33
2020/12/08 06:42:21;;;;;;;28.95;22.00;;;;;;;3.97;100.00;99049.88;5117743;28;20552;-36
2020/12/08 06:45:16;;;;;;;28.10;18.90;;;;;;;4.06;100.00;99051.56;5119623;27;20278;-39
2020/12/08 06:48:07;;;;;;;27.30;18.43;;;;;;;3.90;100.00;99055.00;5117138;28;20309;-31
2020/12/08 06:50:53;;;;;;;28.90;18.80;;;;;;;3.87;100.00;99048.19;5118380;28;20578;-32
2020/12/08 06:53:39;;;;;;;25.23;17.13;;;;;;;3.89;100.00;99055.84;5118463;28;20346;-32
2020/12/08 06:56:29;;;;;;;28.83;18.13;;;;;;;3.96;100.00;99050.75;5117420;28;20204;-31
2020/12/08 06:59:22;;;;;;;26.30;17.77;;;;;;;4.00;100.00;99054.13;5117351;28;20199;-35
2020/12/08 07:02:10;;;;;;;28.87;18.77;;;;;;;3.96;100.00;99060.13;5117453;28;20201;-32
2020/12/08 07:05:00;;;;;;;28.93;19.47;;;;;;;4.06;100.00;99066.91;5117991;28;20251;-35
2020/12/08 07:07:48;;;;;;;26.63;17.17;;;;;;;4.04;100.00;99071.16;5120621;27;20226;-36
2020/12/08 07:10:42;;;;;;;29.83;20.03;;;;;;;3.98;100.00;99076.31;5135707;27;20629;-36
2020/12/08 07:13:38;;;;;;;26.97;18.07;;;;;;;3.94;100.00;99067.78;5118262;28;20203;-34
2020/12/08 07:16:28;;;;;;;28.07;18.20;;;;;;;3.95;100.00;99066.94;5118031;28;20207;-33
2020/12/08 07:19:13;;;;;;;29.97;18.53;;;;;;;3.92;100.00;99073.75;5117678;28;20597;-32
2020/12/08 07:22:01;;;;;;;28.17;19.73;;;;;;;3.96;100.00;99081.44;5117750;28;20192;-31
2020/12/08 07:24:47;;;;;;;33.00;19.23;;;;;;;4.00;100.00;99072.03;5117434;28;20258;-35
2020/12/08 07:27:33;;;;;;;29.97;19.97;;;;;;;3.86;100.00;99084.00;5117434;28;20200;-31
2020/12/08 07:30:21;;;;;;;33.83;19.80;;;;;;;3.97;100.00;99082.28;5117288;28;20201;-33
2020/12/08 07:33:12;;;;;;;29.97;19.23;;;;;;;3.98;100.00;99084.00;5117749;28;20225;-32
2020/12/08 07:35:58;;;;;;;28.00;18.60;;;;;;;3.91;100.00;99084.84;5116943;28;20594;-34
2020/12/08 07:38:44;;;;;;;31.90;20.77;;;;;;;3.95;100.00;99086.56;5117824;28;20313;-33
2020/12/08 07:41:31;;;;;;;31.20;19.97;;;;;;;3.95;100.00;99089.97;5117997;28;20197;-35
2020/12/08 07:44:18;;;;;;;30.33;20.70;;;;;;;3.95;100.00;99084.84;5117675;28;20199;-33
2020/12/08 07:47:11;;;;;;;32.90;19.77;;;;;;;4.02;100.00;99086.53;5117347;28;20193;-33
2020/12/08 07:49:56;;;;;;;28.90;18.47;;;;;;;3.99;100.00;99088.25;5117165;28;20261;-34
2020/12/08 07:52:42;;;;;;;30.10;18.23;;;;;;;4.05;100.00;99083.09;5116789;28;20633;-32
2020/12/08 07:55:31;;;;;;;30.37;19.37;;;;;;;4.17;100.00;99082.25;5123585;27;20483;-36
2020/12/08 07:58:18;;;;;;;30.30;19.97;;;;;;;4.07;100.00;99092.50;5137486;27;20224;-34
2020/12/08 08:01:04;;;;;;;29.43;18.97;;;;;;;4.06;100.00;99087.38;5137481;27;20656;-32
2020/12/08 08:03:50;;;;;;;30.80;19.83;;;;;;;4.11;100.00;99091.63;5137836;27;20209;-32
2020/12/08 08:06:37;;;;;;;28.57;19.40;;;;;;;4.11;100.00;99093.34;5137743;27;20589;-34
2020/12/08 08:09:24;;;;;;;28.33;19.07;;;;;;;4.12;100.00;99100.16;5137954;27;20211;-32
2020/12/08 08:12:10;;;;;;;27.33;18.93;;;;;;;4.21;100.00;99091.59;5137350;27;20219;-34
2020/12/08 08:14:57;;;;;;;27.07;18.40;;;;;;;4.27;100.00;99096.72;5137496;28;20200;-34
2020/12/08 08:17:43;;;;;;;29.10;18.87;;;;;;;4.29;100.00;99092.44;5137028;28;20224;-34
2020/12/08 08:20:30;;;;;;;24.63;18.07;;;;;;;4.29;100.00;99093.28;5137365;28;20200;-32
2020/12/08 08:23:16;;;;;;;30.00;19.03;;;;;;;4.25;100.00;99089.03;5137642;28;20292;-34
2020/12/08 08:26:04;;;;;;;30.30;18.87;;;;;;;4.20;100.00;99090.75;5137528;28;20345;-33
2020/12/08 08:28:51;;;;;;;27.77;19.77;;;;;;;4.37;100.00;99091.59;5136802;28;20197;-32
2020/12/08 08:31:37;;;;;;;30.40;19.60;;;;;;;4.27;100.00;99089.88;5137740;28;20231;-34
2020/12/08 08:34:23;;;;;;;28.77;19.50;;;;;;;4.18;100.00;99091.63;5137375;28;20489;-32
2020/12/08 08:37:09;;;;;;;28.97;19.43;;;;;;;4.21;100.00;99097.56;5136933;28;20205;-32
2020/12/08 08:39:56;;;;;;;30.33;21.23;;;;;;;4.19;100.00;99096.75;5137287;28;20485;-33
2020/12/08 08:42:43;;;;;;;31.77;20.73;;;;;;;4.25;100.00;99104.38;5137371;28;20200;-32
2020/12/08 08:45:30;;;;;;;35.17;21.30;;;;;;;4.17;100.00;99110.41;5136848;28;20288;-33
2020/12/08 08:48:19;;;;;;;32.17;20.67;;;;;;;4.15;100.00;99111.25;5136743;28;20736;-33
2020/12/08 08:51:06;;;;;;;30.13;20.00;;;;;;;4.17;100.00;99106.13;5136772;28;20261;-35
2020/12/08 08:53:55;;;;;;;31.50;20.03;;;;;;;4.34;100.00;99111.22;5137630;28;20199;-33
2020/12/08 08:56:41;;;;;;;27.27;18.77;;;;;;;4.22;100.00;99117.19;5137124;28;20211;-34
2020/12/08 08:59:26;;;;;;;28.47;19.10;;;;;;;4.21;100.00;99109.50;5137291;28;20204;-35
2020/12/08 09:02:13;;;;;;;28.50;20.43;;;;;;;4.34;100.00;99108.66;5137412;28;20195;-34
2020/12/08 09:05:13;;;;;;;27.77;19.30;;;;;;;4.31;100.00;99108.66;5137121;28;20281;-36
2020/12/08 09:07:59;;;;;;;29.40;18.90;;;;;;;4.33;100.00;99114.63;5136809;28;20227;-34
2020/12/08 09:10:45;;;;;;;26.70;19.53;;;;;;;4.45;100.00;99112.88;5137890;27;20208;-32
2020/12/08 09:13:34;;;;;;;28.47;19.37;;;;;;;4.28;100.00;99112.06;5140695;27;20240;-33
2020/12/08 09:16:22;;;;;;;27.63;18.23;;;;;;;4.29;100.00;99113.78;5140218;27;20255;-33
2020/12/08 09:19:12;;;;;;;27.67;19.23;;;;;;;4.48;100.00;99123.09;5140428;27;20614;-33
2020/12/08 09:22:03;;;;;;;29.23;17.57;;;;;;;4.32;100.00;99123.16;5139124;27;20206;-34
2020/12/08 09:24:49;;;;;;;26.00;17.87;;;;;;;4.49;100.00;99121.41;5140946;27;20259;-35
2020/12/08 09:27:36;;;;;;;25.47;17.90;;;;;;;4.50;100.00;99117.97;5120314;28;20670;-36
2020/12/08 09:30:24;;;;;;;25.40;18.37;;;;;;;4.56;100.00;99119.69;5120070;28;20279;-34
2020/12/08 09:33:11;;;;;;;27.87;19.43;;;;;;;4.52;100.00;99125.66;5120082;28;20291;-33
2020/12/08 09:36:00;;;;;;;27.90;19.23;;;;;;;4.65;100.00;99124.75;5120128;28;20295;-35
2020/12/08 09:38:47;;;;;;;25.80;18.40;;;;;;;4.71;100.00;99129.88;5125841;27;20294;-35
2020/12/08 09:41:33;;;;;;;26.77;18.80;;;;;;;4.78;100.00;99134.97;5140494;27;20601;-32
2020/12/08 09:44:25;;;;;;;27.20;18.50;;;;;;;4.73;100.00;99135.84;5140576;27;20298;-35
2020/12/08 09:47:11;;;;;;;25.47;18.13;;;;;;;4.77;100.00;99140.94;5140564;27;20193;-37
2020/12/08 09:50:01;;;;;;;27.30;19.73;;;;;;;4.85;100.00;99130.66;5140181;27;20201;-32
2020/12/08 09:52:50;;;;;;;26.87;19.20;;;;;;;4.82;100.00;99131.50;5140313;27;20253;-37
2020/12/08 09:55:37;;;;;;;28.40;18.77;;;;;;;4.92;100.00;99139.19;5140469;27;20202;-37
2020/12/08 09:58:23;;;;;;;28.57;19.50;;;;;;;5.03;100.00;99134.84;5139933;27;20290;-32
2020/12/08 10:01:09;;;;;;;28.37;19.23;;;;;;;5.10;100.00;99131.41;5140055;27;20206;-33
2020/12/08 10:03:55;;;;;;;27.60;18.00;;;;;;;4.89;100.00;99141.75;5139670;27;20286;-35
2020/12/08 10:06:41;;;;;;;26.97;19.47;;;;;;;4.92;100.00;99142.59;5140050;27;20263;-34
2020/12/08 10:09:28;;;;;;;25.40;18.83;;;;;;;4.88;100.00;99140.91;5140182;27;20252;-35
2020/12/08 10:12:15;;;;;;;25.77;17.63;;;;;;;4.95;100.00;99139.16;5138992;27;20287;-34
2020/12/08 10:15:01;;;;;;;25.40;18.30;;;;;;;5.01;100.00;99146.81;5138775;27;20202;-34
2020/12/08 10:17:47;;;;;;;26.43;19.20;;;;;;;4.98;100.00;99142.56;5139542;27;20201;-33
2020/12/08 10:20:33;;;;;;;25.37;18.20;;;;;;;4.95;100.00;99136.59;5138451;27;20233;-35
2020/12/08 10:23:26;;;;;;;27.07;18.27;;;;;;;5.01;100.00;99139.13;5137849;27;20220;-34
2020/12/08 10:26:26;;;;;;;25.67;17.90;;;;;;;4.95;100.00;99137.47;5139755;27;20201;-39
2020/12/08 10:29:18;;;;;;;25.40;17.30;;;;;;;4.85;100.00;99143.47;5138573;27;20205;-36
2020/12/08 10:32:07;;;;;;;25.33;18.57;;;;;;;4.96;100.00;99144.28;5139637;27;20634;-33
2020/12/08 10:34:54;;;;;;;26.07;18.20;;;;;;;4.90;100.00;99140.88;5139272;27;20194;-33
2020/12/08 10:37:40;;;;;;;25.83;18.57;;;;;;;4.82;100.00;99141.75;5139511;27;20210;-34
2020/12/08 10:40:28;;;;;;;24.73;18.00;;;;;;;4.80;100.00;99140.06;5139105;27;20202;-32
2020/12/08 10:43:15;;;;;;;26.20;17.47;;;;;;;4.92;100.00;99140.03;5139128;27;20205;-35
2020/12/08 10:46:21;;;;;;;28.30;19.23;;;;;;;5.01;100.00;99146.81;5139239;27;20194;-34
2020/12/08 10:49:07;;;;;;;25.30;17.57;;;;;;;4.81;100.00;99152.88;5139424;27;20218;-32
2020/12/08 10:51:53;;;;;;;27.40;18.27;;;;;;;4.85;100.00;99141.75;5139719;27;20323;-32
2020/12/08 10:54:40;;;;;;;25.50;17.43;;;;;;;4.70;100.00;99149.50;5138702;27;20603;-35
2020/12/08 10:57:29;;;;;;;24.60;17.67;;;;;;;4.91;100.00;99140.88;5138523;27;20198;-35
2020/12/08 11:00:19;;;;;;;28.33;19.03;;;;;;;4.85;100.00;99140.91;5138700;27;20234;-32
2020/12/08 11:03:08;;;;;;;25.70;18.23;;;;;;;4.93;100.00;99133.19;5137957;27;20340;-35
2020/12/08 11:05:54;;;;;;;25.93;18.83;;;;;;;4.96;100.00;99130.63;5138803;27;20193;-33
2020/12/08 11:08:40;;;;;;;25.00;17.23;;;;;;;4.82;100.00;99131.50;5123366;27;20287;-38
2020/12/08 11:11:29;;;;;;;26.47;18.80;;;;;;;5.02;100.00;99130.56;5118084;28;20611;-33
2020/12/08 11:14:15;;;;;;;27.10;18.67;;;;;;;5.14;100.00;99123.69;5117498;28;20189;-34
2020/12/08 11:17:02;;;;;;;26.80;18.23;;;;;;;5.14;100.00;99120.28;5117195;28;20205;-35
2020/12/08 11:19:54;;;;;;;25.70;19.63;;;;;;;5.14;100.00;99117.72;5116122;28;20213;-37
2020/12/08 11:22:40;;;;;;;23.47;18.00;;;;;;;5.17;100.00;99122.81;5117501;28;20190;-34
2020/12/08 11:25:26;;;;;;;25.37;17.80;;;;;;;5.02;100.00;99123.75;5116982;28;20202;-33
2020/12/08 11:28:12;;;;;;;25.77;18.47;;;;;;;5.11;100.00;99117.72;5117647;28;20203;-33
2020/12/08 11:30:58;;;;;;;26.97;19.10;;;;;;;5.27;100.00;99121.03;5117623;28;20588;-38
2020/12/08 11:34:00;;;;;;;26.30;18.40;;;;;;;5.23;100.00;99109.94;5116663;28;20197;-34
2020/12/08 11:36:46;;;;;;;29.27;19.00;;;;;;;5.17;100.00;99112.56;5116940;28;20240;-32
2020/12/08 11:39:32;;;;;;;27.90;18.67;;;;;;;5.37;100.00;99107.31;5116905;28;20194;-33
2020/12/08 11:42:18;;;;;;;27.63;19.20;;;;;;;5.46;100.00;99107.25;5117239;28;20588;-33
2020/12/08 11:45:04;;;;;;;27.50;19.07;;;;;;;5.30;100.00;99108.22;5117659;28;20520;-33
2020/12/08 11:47:50;;;;;;;34.33;23.20;;;;;;;5.44;100.00;99117.50;5123281;27;20567;-33
2020/12/08 11:50:38;;;;;;;27.43;18.90;;;;;;;5.71;100.00;99110.47;5137801;27;20205;-36
2020/12/08 11:53:24;;;;;;;28.93;20.17;;;;;;;5.85;100.00;99106.94;5138101;27;20615;-35
2020/12/08 11:56:10;;;;;;;26.53;20.03;;;;;;;6.10;100.00;99102.47;5137722;27;20201;-36
2020/12/08 11:58:57;;;;;;;24.83;19.13;;;;;;;5.94;100.00;99100.06;5137735;27;20339;-35
2020/12/08 12:01:50;;;;;;;23.00;17.73;;;;;;;6.36;100.00;99099.63;5137722;27;20344;-32
2020/12/08 12:04:36;;;;;;;23.23;17.47;;;;;;;6.41;100.00;99090.16;5137842;27;20215;-38
2020/12/08 12:07:25;;;;;;;20.30;15.37;;;;;;;6.01;100.00;99094.84;5137913;27;20320;-36
2020/12/08 12:10:11;;;;;;;22.97;17.27;;;;;;;5.99;100.00;99098.31;5137711;27;20215;-34
2020/12/08 12:12:58;;;;;;;49.33;27.20;;;;;;;6.17;100.00;99091.28;5137524;27;20237;-36
2020/12/08 12:15:44;;;;;;;21.40;17.53;;;;;;;6.56;100.00;99092.56;5137488;28;20224;-35
2020/12/08 12:18:31;;;;;;;21.87;16.40;;;;;;;6.58;100.00;99087.41;5137211;28;20537;-34
2020/12/08 12:21:18;;;;;;;23.30;16.27;;;;;;;6.63;100.00;99087.31;5138233;28;20294;-38
2020/12/08 12:24:05;;;;;;;20.90;16.03;;;;;;;6.66;100.00;99090.72;5137988;28;20532;-34
2020/12/08 12:27:04;;;;;;;21.90;15.20;;;;;;;6.40;100.00;99090.16;5137893;28;20680;-34
2020/12/08 12:29:51;;;;;;;19.33;16.70;;;;;;;7.40;100.00;99081.13;5137428;28;20263;-36
2020/12/08 12:32:47;;;;;;;20.70;15.90;;;;;;;6.71;100.00;99088.94;5137304;28;20227;-34
2020/12/08 12:35:33;;;;;;;20.40;16.60;;;;;;;6.42;100.00;99086.72;5137056;28;20200;-37
2020/12/08 12:38:19;;;;;;;20.87;14.90;;;;;;;5.77;100.00;99083.06;5138059;28;20202;-36
2020/12/08 12:41:11;;;;;;;22.23;15.47;;;;;;;6.09;100.00;99085.34;5137171;28;20327;-32
2020/12/08 12:43:58;;;;;;;23.53;16.80;;;;;;;6.10;100.00;99089.63;5136816;28;20202;-32
2020/12/08 12:46:44;;;;;;;21.47;15.40;;;;;;;5.99;100.00;99090.59;5140976;27;20287;-33
2020/12/08 12:49:29;;;;;;;22.13;16.03;;;;;;;6.44;100.00;99094.41;5141037;27;20263;-36